地図

経路データ

SID SEASON NUMBER BASIN SUBBASIN NAME ISO_TIME NATURE LAT LON WMO_WIND WMO_PRES WMO_AGENCY TRACK_TYPE DIST2LAND LANDFALL IFLAG USA_AGENCY USA_ATCF_ID USA_LAT USA_LON USA_RECORD USA_STATUS USA_WIND USA_PRES USA_SSHS USA_R34_NE USA_R34_SE USA_R34_SW USA_R34_NW USA_R50_NE USA_R50_SE USA_R50_SW USA_R50_NW USA_R64_NE USA_R64_SE USA_R64_SW USA_R64_NW USA_POCI USA_ROCI USA_RMW USA_EYE TOKYO_LAT TOKYO_LON TOKYO_GRADE TOKYO_WIND TOKYO_PRES TOKYO_R50_DIR TOKYO_R50_LONG TOKYO_R50_SHORT TOKYO_R30_DIR TOKYO_R30_LONG TOKYO_R30_SHORT TOKYO_LAND CMA_LAT CMA_LON CMA_CAT CMA_WIND CMA_PRES HKO_LAT HKO_LON HKO_CAT HKO_WIND HKO_PRES NEWDELHI_LAT NEWDELHI_LON NEWDELHI_GRADE NEWDELHI_WIND NEWDELHI_PRES NEWDELHI_CI NEWDELHI_DP NEWDELHI_POCI REUNION_LAT REUNION_LON REUNION_TYPE REUNION_WIND REUNION_PRES REUNION_TNUM REUNION_CI REUNION_RMW REUNION_R34_NE REUNION_R34_SE REUNION_R34_SW REUNION_R34_NW REUNION_R50_NE REUNION_R50_SE REUNION_R50_SW REUNION_R50_NW REUNION_R64_NE REUNION_R64_SE REUNION_R64_SW REUNION_R64_NW BOM_LAT BOM_LON BOM_TYPE BOM_WIND BOM_PRES BOM_TNUM BOM_CI BOM_RMW BOM_R34_NE BOM_R34_SE BOM_R34_SW BOM_R34_NW BOM_R50_NE BOM_R50_SE BOM_R50_SW BOM_R50_NW BOM_R64_NE BOM_R64_SE BOM_R64_SW BOM_R64_NW BOM_ROCI BOM_POCI BOM_EYE BOM_POS_METHOD BOM_PRES_METHOD NADI_LAT NADI_LON NADI_CAT NADI_WIND NADI_PRES WELLINGTON_LAT WELLINGTON_LON WELLINGTON_WIND WELLINGTON_PRES DS824_LAT DS824_LON DS824_STAGE DS824_WIND DS824_PRES TD9636_LAT TD9636_LON TD9636_STAGE TD9636_WIND TD9636_PRES TD9635_LAT TD9635_LON TD9635_WIND TD9635_PRES TD9635_ROCI NEUMANN_LAT NEUMANN_LON NEUMANN_CLASS NEUMANN_WIND NEUMANN_PRES MLC_LAT MLC_LON MLC_CLASS MLC_WIND MLC_PRES USA_GUST BOM_GUST BOM_GUST_PER REUNION_GUST REUNION_GUST_PER USA_SEAHGT USA_SEARAD_NE USA_SEARAD_SE USA_SEARAD_SW USA_SEARAD_NW STORM_SPEED STORM_DIR
1988227N18250 1988 55 EP MM NOT_NAMED 1988-08-14 00:00:00 TS 18.4000 -109.600 25 hurdat_epa main 466 446 O_____________ hurdat_epa EP171988 18.4000 -109.600 TD 25 -1 4 81
1988227N18250 1988 55 EP MM NOT_NAMED 1988-08-14 03:00:00 TS 18.4301 -109.395 main 446 423 P_____________ EP171988 18.4301 -109.395 TD 25 -1 4 75
1988227N18250 1988 55 EP MM NOT_NAMED 1988-08-14 06:00:00 TS 18.5000 -109.200 25 hurdat_epa main 423 399 O_____________ hurdat_epa EP171988 18.5000 -109.200 TD 25 -1 4 62
1988227N18250 1988 55 EP MM NOT_NAMED 1988-08-14 09:00:00 TS 18.6224 -109.015 main 399 375 P_____________ EP171988 18.6224 -109.015 TD 27 -1 4 62
1988227N18250 1988 55 EP MM NOT_NAMED 1988-08-14 12:00:00 TS 18.7000 -108.800 30 hurdat_epa main 375 351 O_____________ hurdat_epa EP171988 18.7000 -108.800 TD 30 -1 6 95
1988227N18250 1988 55 EP MM NOT_NAMED 1988-08-14 15:00:00 TS 18.5702 -108.432 main 342 329 P_____________ EP171988 18.5702 -108.432 TD 27 -1 6 109
1988227N18250 1988 55 EP MM NOT_NAMED 1988-08-14 18:00:00 TS 18.5000 -108.200 25 hurdat_epa main 329 323 O_____________ hurdat_epa EP171988 18.5000 -108.200 TD 25 -1 2 31
1988227N18250 1988 55 EP MM NOT_NAMED 1988-08-14 21:00:00 TS 18.7323 -108.330 main 327 327 P_____________ EP171988 18.7323 -108.330 TD 27 -1 8 322
1988227N18250 1988 55 EP MM NOT_NAMED 1988-08-15 00:00:00 TS 19.1000 -108.700 30 hurdat_epa main 345 345 O_____________ hurdat_epa EP171988 19.1000 -108.700 TD 30 -1 12 313
1988227N18250 1988 55 EP MM NOT_NAMED 1988-08-15 03:00:00 TS 19.5180 -109.214 main 379 346 P_____________ EP171988 19.5180 -109.214 TD 30 -1 12 307
1988227N18250 1988 55 EP MM NOT_NAMED 1988-08-15 06:00:00 TS 19.8000 -109.700 30 hurdat_epa main 346 335 O_____________ hurdat_epa EP171988 19.8000 -109.700 TD 30 -1 8 295
1988227N18250 1988 55 EP MM NOT_NAMED 1988-08-15 09:00:00 TS 19.8297 -109.941 main 346 346 P_____________ EP171988 19.8297 -109.941 TD 27 -1 4 223
1988227N18250 1988 55 EP MM NOT_NAMED 1988-08-15 12:00:00 TS 19.5000 -110.000 25 hurdat_epa main 380 380 O_____________ hurdat_epa EP171988 19.5000 -110.000 TD 25 -1 12 0
1988227N18250 1988 55 EP MM NOT_NAMED 1988-08-15 15:00:00 TS 18.6425 -109.929 main 480 480 P_____________ EP171988 18.6425 -109.929 TD 25 -1 17 174
1988227N18250 1988 55 EP MM NOT_NAMED 1988-08-15 18:00:00 TS 17.8000 -109.800 25 hurdat_epa main 514 514 O_____________ hurdat_epa EP171988 17.8000 -109.800 TD 25 -1 11 170
1988227N18250 1988 55 EP MM NOT_NAMED 1988-08-15 21:00:00 TS 17.5950 -109.735 main 517 517 P_____________ EP171988 17.5950 -109.735 TD 25 -1 2 153
1988227N18250 1988 55 EP MM NOT_NAMED 1988-08-16 00:00:00 TS 17.6000 -109.700 25 hurdat_epa main 517 517 O_____________ hurdat_epa EP171988 17.6000 -109.700 TD 25 -1 2 158
1988227N18250 1988 55 EP MM NOT_NAMED 1988-08-16 03:00:00 TS 17.4575 -109.670 main 523 523 P_____________ EP171988 17.4575 -109.670 TD 25 -1 3 0
1988227N18250 1988 55 EP MM NOT_NAMED 1988-08-16 06:00:00 TS 17.3000 -109.700 25 hurdat_epa main 535 535 O_____________ hurdat_epa EP171988 17.3000 -109.700 TD 25 -1 4 213
1988227N18250 1988 55 EP MM NOT_NAMED 1988-08-16 09:00:00 TS 17.1275 -109.888 main 565 565 P_____________ EP171988 17.1275 -109.888 TD 25 -1 4 224
1988227N18250 1988 55 EP MM NOT_NAMED 1988-08-16 12:00:00 TS 17.0000 -110.000 25 hurdat_epa main 580 571 O_____________ hurdat_epa EP171988 17.0000 -110.000 TD 25 -1 2 165
1988227N18250 1988 55 EP MM NOT_NAMED 1988-08-16 15:00:00 TS 16.9702 -109.837 main 562 536 P_____________ EP171988 16.9702 -109.837 TD 25 -1 5 90
1988227N18250 1988 55 EP MM NOT_NAMED 1988-08-16 18:00:00 TS 17.0000 -109.500 25 hurdat_epa main 536 O_____________ hurdat_epa EP171988 17.0000 -109.500 TD 25 -1 6 85

IBTrACS Databaseについて

本データベースは、米国NOAAが公開する1842年以降の世界の熱帯低気圧のベストトラックデータアーカイブInternational Best Track Archive for Climate Stewardship (IBTrACS)を、ウェブで閲覧しやすい形式に変換したものです。

最終更新日:2021-12-03